sensor_id;sensor_type;location;lat;lon;timestamp;temperature;humidity
25939;DHT22;13739;51.172;4.466;2022-10-16T00:02:04;14.20;99.90
25939;DHT22;13739;51.172;4.466;2022-10-16T00:04:30;14.30;99.90
25939;DHT22;13739;51.172;4.466;2022-10-16T00:06:55;14.30;99.90
25939;DHT22;13739;51.172;4.466;2022-10-16T00:09:21;14.30;99.90
25939;DHT22;13739;51.172;4.466;2022-10-16T00:11:46;14.30;99.90
25939;DHT22;13739;51.172;4.466;2022-10-16T00:14:14;14.20;99.90
25939;DHT22;13739;51.172;4.466;2022-10-16T00:16:40;14.20;99.90
25939;DHT22;13739;51.172;4.466;2022-10-16T00:19:06;14.10;99.90
25939;DHT22;13739;51.172;4.466;2022-10-16T00:21:33;14.20;99.90
25939;DHT22;13739;51.172;4.466;2022-10-16T00:24:02;14.20;99.90
25939;DHT22;13739;51.172;4.466;2022-10-16T00:26:29;14.20;99.90
25939;DHT22;13739;51.172;4.466;2022-10-16T00:28:55;14.20;99.90
25939;DHT22;13739;51.172;4.466;2022-10-16T00:31:21;14.20;99.90
25939;DHT22;13739;51.172;4.466;2022-10-16T00:33:48;14.20;99.90
25939;DHT22;13739;51.172;4.466;2022-10-16T00:36:17;14.20;99.90
25939;DHT22;13739;51.172;4.466;2022-10-16T00:38:43;14.10;99.90
25939;DHT22;13739;51.172;4.466;2022-10-16T00:41:12;14.00;99.90
25939;DHT22;13739;51.172;4.466;2022-10-16T00:43:48;14.10;99.90
25939;DHT22;13739;51.172;4.466;2022-10-16T00:49:15;14.20;99.90
25939;DHT22;13739;51.172;4.466;2022-10-16T00:51:44;14.10;99.90
25939;DHT22;13739;51.172;4.466;2022-10-16T00:56:47;14.10;99.90
25939;DHT22;13739;51.172;4.466;2022-10-16T00:59:27;14.10;99.90
25939;DHT22;13739;51.172;4.466;2022-10-16T01:01:54;14.00;99.90
25939;DHT22;13739;51.172;4.466;2022-10-16T01:04:20;14.00;99.90
25939;DHT22;13739;51.172;4.466;2022-10-16T01:09:28;13.90;99.90
25939;DHT22;13739;51.172;4.466;2022-10-16T01:12:10;14.00;99.90
25939;DHT22;13739;51.172;4.466;2022-10-16T01:14:43;13.90;99.90
25939;DHT22;13739;51.172;4.466;2022-10-16T01:19:51;13.90;99.90
25939;DHT22;13739;51.172;4.466;2022-10-16T01:22:20;14.00;99.90
25939;DHT22;13739;51.172;4.466;2022-10-16T01:24:49;14.00;99.90
25939;DHT22;13739;51.172;4.466;2022-10-16T01:27:25;14.00;99.90
25939;DHT22;13739;51.172;4.466;2022-10-16T01:30:02;14.00;99.90
25939;DHT22;13739;51.172;4.466;2022-10-16T01:32:50;13.90;99.90
25939;DHT22;13739;51.172;4.466;2022-10-16T01:35:27;13.90;99.90
25939;DHT22;13739;51.172;4.466;2022-10-16T01:38:08;13.80;99.90
25939;DHT22;13739;51.172;4.466;2022-10-16T01:40:37;13.80;99.90
25939;DHT22;13739;51.172;4.466;2022-10-16T01:43:20;13.80;99.90
25939;DHT22;13739;51.172;4.466;2022-10-16T01:45:48;13.80;99.90
25939;DHT22;13739;51.172;4.466;2022-10-16T01:48:17;13.80;99.90
25939;DHT22;13739;51.172;4.466;2022-10-16T01:50:56;13.70;99.90
25939;DHT22;13739;51.172;4.466;2022-10-16T01:53:24;13.60;99.90
25939;DHT22;13739;51.172;4.466;2022-10-16T01:55:52;13.60;99.90
25939;DHT22;13739;51.172;4.466;2022-10-16T01:58:20;13.70;99.90
25939;DHT22;13739;51.172;4.466;2022-10-16T02:00:47;13.70;99.90
25939;DHT22;13739;51.172;4.466;2022-10-16T02:03:16;13.70;99.90
25939;DHT22;13739;51.172;4.466;2022-10-16T02:05:55;13.70;99.90
25939;DHT22;13739;51.172;4.466;2022-10-16T02:08:23;13.50;99.90
25939;DHT22;13739;51.172;4.466;2022-10-16T02:10:49;13.50;99.90
25939;DHT22;13739;51.172;4.466;2022-10-16T02:13:26;13.60;99.90
25939;DHT22;13739;51.172;4.466;2022-10-16T02:15:53;13.50;99.90
25939;DHT22;13739;51.172;4.466;2022-10-16T02:18:19;13.50;99.90
25939;DHT22;13739;51.172;4.466;2022-10-16T02:24:07;13.50;99.90
25939;DHT22;13739;51.172;4.466;2022-10-16T02:26:49;13.40;99.90
25939;DHT22;13739;51.172;4.466;2022-10-16T02:29:20;13.40;99.90
25939;DHT22;13739;51.172;4.466;2022-10-16T02:31:50;13.50;99.90
25939;DHT22;13739;51.172;4.466;2022-10-16T02:34:18;13.60;99.90
25939;DHT22;13739;51.172;4.466;2022-10-16T02:36:46;13.60;99.90
25939;DHT22;13739;51.172;4.466;2022-10-16T02:39:14;13.60;99.90
25939;DHT22;13739;51.172;4.466;2022-10-16T02:41:40;13.50;99.90
25939;DHT22;13739;51.172;4.466;2022-10-16T02:44:05;13.50;99.90
25939;DHT22;13739;51.172;4.466;2022-10-16T02:46:31;13.50;99.90
25939;DHT22;13739;51.172;4.466;2022-10-16T02:48:56;13.40;99.90
25939;DHT22;13739;51.172;4.466;2022-10-16T02:51:22;13.50;99.90
25939;DHT22;13739;51.172;4.466;2022-10-16T02:53:47;13.40;99.90
25939;DHT22;13739;51.172;4.466;2022-10-16T02:56:13;13.40;99.90
25939;DHT22;13739;51.172;4.466;2022-10-16T02:58:39;13.40;99.90
25939;DHT22;13739;51.172;4.466;2022-10-16T03:01:04;13.40;99.90
25939;DHT22;13739;51.172;4.466;2022-10-16T03:03:30;13.40;99.90
25939;DHT22;13739;51.172;4.466;2022-10-16T03:05:55;13.40;99.90
25939;DHT22;13739;51.172;4.466;2022-10-16T03:08:21;13.50;99.90
25939;DHT22;13739;51.172;4.466;2022-10-16T03:10:49;13.50;99.90
25939;DHT22;13739;51.172;4.466;2022-10-16T03:13:15;13.40;99.90
25939;DHT22;13739;51.172;4.466;2022-10-16T03:15:41;13.50;99.90
25939;DHT22;13739;51.172;4.466;2022-10-16T03:18:07;13.50;99.90
25939;DHT22;13739;51.172;4.466;2022-10-16T03:20:32;13.40;99.90
25939;DHT22;13739;51.172;4.466;2022-10-16T03:22:58;13.50;99.90
25939;DHT22;13739;51.172;4.466;2022-10-16T03:25:24;13.50;99.90
25939;DHT22;13739;51.172;4.466;2022-10-16T03:27:50;13.50;99.90
25939;DHT22;13739;51.172;4.466;2022-10-16T03:30:15;13.50;99.90
25939;DHT22;13739;51.172;4.466;2022-10-16T03:32:43;13.50;99.90
25939;DHT22;13739;51.172;4.466;2022-10-16T03:35:09;13.50;99.90
25939;DHT22;13739;51.172;4.466;2022-10-16T03:37:34;13.50;99.90
25939;DHT22;13739;51.172;4.466;2022-10-16T03:40:00;13.50;99.90
25939;DHT22;13739;51.172;4.466;2022-10-16T03:42:26;13.50;99.90
25939;DHT22;13739;51.172;4.466;2022-10-16T03:44:51;13.50;99.90
25939;DHT22;13739;51.172;4.466;2022-10-16T03:47:17;13.50;99.90
25939;DHT22;13739;51.172;4.466;2022-10-16T03:49:47;13.50;99.90
25939;DHT22;13739;51.172;4.466;2022-10-16T03:52:13;13.40;99.90
25939;DHT22;13739;51.172;4.466;2022-10-16T03:54:38;13.40;99.90
25939;DHT22;13739;51.172;4.466;2022-10-16T03:57:04;13.50;99.90
25939;DHT22;13739;51.172;4.466;2022-10-16T03:59:30;13.50;99.90
25939;DHT22;13739;51.172;4.466;2022-10-16T04:01:55;13.60;99.90
25939;DHT22;13739;51.172;4.466;2022-10-16T04:04:21;13.50;99.90
25939;DHT22;13739;51.172;4.466;2022-10-16T04:06:47;13.50;99.90
25939;DHT22;13739;51.172;4.466;2022-10-16T04:09:12;13.50;99.90
25939;DHT22;13739;51.172;4.466;2022-10-16T04:11:38;13.50;99.90
25939;DHT22;13739;51.172;4.466;2022-10-16T04:14:04;13.50;99.90
25939;DHT22;13739;51.172;4.466;2022-10-16T04:16:30;13.50;99.90
25939;DHT22;13739;51.172;4.466;2022-10-16T04:18:55;13.50;99.90
25939;DHT22;13739;51.172;4.466;2022-10-16T04:21:21;13.50;99.90
25939;DHT22;13739;51.172;4.466;2022-10-16T04:23:47;13.50;99.90
25939;DHT22;13739;51.172;4.466;2022-10-16T04:26:13;13.40;99.90
25939;DHT22;13739;51.172;4.466;2022-10-16T04:28:39;13.40;99.90
25939;DHT22;13739;51.172;4.466;2022-10-16T04:31:06;13.40;99.90
25939;DHT22;13739;51.172;4.466;2022-10-16T04:33:32;13.40;99.90
25939;DHT22;13739;51.172;4.466;2022-10-16T04:35:59;13.40;99.90
25939;DHT22;13739;51.172;4.466;2022-10-16T04:38:25;13.40;99.90
25939;DHT22;13739;51.172;4.466;2022-10-16T04:40:51;13.40;99.90
25939;DHT22;13739;51.172;4.466;2022-10-16T04:43:17;13.40;99.90
25939;DHT22;13739;51.172;4.466;2022-10-16T04:45:42;13.30;99.90
25939;DHT22;13739;51.172;4.466;2022-10-16T04:48:08;13.30;99.90
25939;DHT22;13739;51.172;4.466;2022-10-16T04:50:33;13.30;99.90
25939;DHT22;13739;51.172;4.466;2022-10-16T04:52:59;13.30;99.90
25939;DHT22;13739;51.172;4.466;2022-10-16T04:55:25;13.20;99.90
25939;DHT22;13739;51.172;4.466;2022-10-16T04:57:50;13.20;99.90
25939;DHT22;13739;51.172;4.466;2022-10-16T05:00:16;13.20;99.90
25939;DHT22;13739;51.172;4.466;2022-10-16T05:02:41;13.20;99.90
25939;DHT22;13739;51.172;4.466;2022-10-16T05:05:07;13.30;99.90
25939;DHT22;13739;51.172;4.466;2022-10-16T05:07:33;13.30;99.90
25939;DHT22;13739;51.172;4.466;2022-10-16T05:09:58;13.30;99.90
25939;DHT22;13739;51.172;4.466;2022-10-16T05:12:24;13.30;99.90
25939;DHT22;13739;51.172;4.466;2022-10-16T05:14:49;13.30;99.90
25939;DHT22;13739;51.172;4.466;2022-10-16T05:17:15;13.30;99.90
25939;DHT22;13739;51.172;4.466;2022-10-16T05:19:41;13.30;99.90
25939;DHT22;13739;51.172;4.466;2022-10-16T05:22:06;13.20;99.90
25939;DHT22;13739;51.172;4.466;2022-10-16T05:24:32;13.20;99.90
25939;DHT22;13739;51.172;4.466;2022-10-16T05:26:58;13.20;99.90
25939;DHT22;13739;51.172;4.466;2022-10-16T05:29:23;13.00;99.90
25939;DHT22;13739;51.172;4.466;2022-10-16T05:31:53;13.00;99.90
25939;DHT22;13739;51.172;4.466;2022-10-16T05:34:19;13.00;99.90
25939;DHT22;13739;51.172;4.466;2022-10-16T05:36:45;13.00;99.90
25939;DHT22;13739;51.172;4.466;2022-10-16T05:39:11;13.00;99.90
25939;DHT22;13739;51.172;4.466;2022-10-16T05:41:37;13.10;99.90
25939;DHT22;13739;51.172;4.466;2022-10-16T05:44:06;13.10;99.90
25939;DHT22;13739;51.172;4.466;2022-10-16T05:46:32;13.10;99.90
25939;DHT22;13739;51.172;4.466;2022-10-16T05:48:58;13.10;99.90
25939;DHT22;13739;51.172;4.466;2022-10-16T05:51:24;13.10;99.90
25939;DHT22;13739;51.172;4.466;2022-10-16T05:53:49;13.10;99.90
25939;DHT22;13739;51.172;4.466;2022-10-16T05:56:15;13.00;99.90
25939;DHT22;13739;51.172;4.466;2022-10-16T05:58:42;13.00;99.90
25939;DHT22;13739;51.172;4.466;2022-10-16T06:01:12;13.00;99.90
25939;DHT22;13739;51.172;4.466;2022-10-16T06:03:37;13.00;99.90
25939;DHT22;13739;51.172;4.466;2022-10-16T06:06:14;13.00;99.90
25939;DHT22;13739;51.172;4.466;2022-10-16T06:08:42;13.00;99.90
25939;DHT22;13739;51.172;4.466;2022-10-16T06:11:10;13.10;99.90
25939;DHT22;13739;51.172;4.466;2022-10-16T06:13:36;13.10;99.90
25939;DHT22;13739;51.172;4.466;2022-10-16T06:16:03;13.20;99.90
25939;DHT22;13739;51.172;4.466;2022-10-16T06:18:29;13.30;99.90
25939;DHT22;13739;51.172;4.466;2022-10-16T06:20:55;13.40;99.90
25939;DHT22;13739;51.172;4.466;2022-10-16T06:23:22;13.40;99.90
25939;DHT22;13739;51.172;4.466;2022-10-16T06:25:47;13.40;99.90
25939;DHT22;13739;51.172;4.466;2022-10-16T06:28:14;13.30;99.90
25939;DHT22;13739;51.172;4.466;2022-10-16T06:30:40;13.30;99.90
25939;DHT22;13739;51.172;4.466;2022-10-16T06:33:05;13.40;99.90
25939;DHT22;13739;51.172;4.466;2022-10-16T06:35:31;13.40;99.90
25939;DHT22;13739;51.172;4.466;2022-10-16T06:37:57;13.40;99.90
25939;DHT22;13739;51.172;4.466;2022-10-16T06:40:23;13.40;99.90
25939;DHT22;13739;51.172;4.466;2022-10-16T06:42:49;13.40;99.90
25939;DHT22;13739;51.172;4.466;2022-10-16T06:45:15;13.30;99.90
25939;DHT22;13739;51.172;4.466;2022-10-16T06:47:41;13.20;99.90
25939;DHT22;13739;51.172;4.466;2022-10-16T06:50:07;13.40;99.90
25939;DHT22;13739;51.172;4.466;2022-10-16T06:52:33;13.30;99.90
25939;DHT22;13739;51.172;4.466;2022-10-16T06:54:59;13.30;99.90
25939;DHT22;13739;51.172;4.466;2022-10-16T06:57:25;13.30;99.90
25939;DHT22;13739;51.172;4.466;2022-10-16T06:59:51;13.30;99.90
25939;DHT22;13739;51.172;4.466;2022-10-16T07:02:17;13.40;99.90
25939;DHT22;13739;51.172;4.466;2022-10-16T07:04:42;13.50;99.90
25939;DHT22;13739;51.172;4.466;2022-10-16T07:07:08;13.60;99.90
25939;DHT22;13739;51.172;4.466;2022-10-16T07:09:34;13.70;99.90
25939;DHT22;13739;51.172;4.466;2022-10-16T07:11:59;13.70;99.90
25939;DHT22;13739;51.172;4.466;2022-10-16T07:14:25;13.60;99.90
25939;DHT22;13739;51.172;4.466;2022-10-16T07:16:50;13.70;99.90
25939;DHT22;13739;51.172;4.466;2022-10-16T07:19:16;13.80;99.90
25939;DHT22;13739;51.172;4.466;2022-10-16T07:21:43;13.80;99.90
25939;DHT22;13739;51.172;4.466;2022-10-16T07:24:15;13.80;99.90
25939;DHT22;13739;51.172;4.466;2022-10-16T07:26:42;13.80;99.90
25939;DHT22;13739;51.172;4.466;2022-10-16T07:29:13;13.80;99.90
25939;DHT22;13739;51.172;4.466;2022-10-16T07:31:39;13.90;99.90
25939;DHT22;13739;51.172;4.466;2022-10-16T07:34:05;13.90;99.90
25939;DHT22;13739;51.172;4.466;2022-10-16T07:36:30;14.00;99.90
25939;DHT22;13739;51.172;4.466;2022-10-16T07:38:56;14.10;99.90
25939;DHT22;13739;51.172;4.466;2022-10-16T07:41:22;14.20;99.90
25939;DHT22;13739;51.172;4.466;2022-10-16T07:43:49;14.20;99.90
25939;DHT22;13739;51.172;4.466;2022-10-16T07:46:16;14.20;99.90
25939;DHT22;13739;51.172;4.466;2022-10-16T07:48:42;14.30;99.90
25939;DHT22;13739;51.172;4.466;2022-10-16T07:51:11;14.30;99.90
25939;DHT22;13739;51.172;4.466;2022-10-16T07:53:37;14.40;99.90
25939;DHT22;13739;51.172;4.466;2022-10-16T07:56:05;14.40;99.90
25939;DHT22;13739;51.172;4.466;2022-10-16T07:58:32;14.40;99.90
25939;DHT22;13739;51.172;4.466;2022-10-16T08:00:58;14.50;99.90
25939;DHT22;13739;51.172;4.466;2022-10-16T08:03:25;14.50;99.90
25939;DHT22;13739;51.172;4.466;2022-10-16T08:05:51;14.50;99.90
25939;DHT22;13739;51.172;4.466;2022-10-16T08:08:18;14.60;99.90
25939;DHT22;13739;51.172;4.466;2022-10-16T08:10:44;14.60;99.90
25939;DHT22;13739;51.172;4.466;2022-10-16T08:13:10;14.60;99.90
25939;DHT22;13739;51.172;4.466;2022-10-16T08:15:35;14.70;99.90
25939;DHT22;13739;51.172;4.466;2022-10-16T08:18:03;14.80;99.90
25939;DHT22;13739;51.172;4.466;2022-10-16T08:20:30;14.90;99.90
25939;DHT22;13739;51.172;4.466;2022-10-16T08:22:56;14.90;99.90
25939;DHT22;13739;51.172;4.466;2022-10-16T08:25:23;14.90;99.90
25939;DHT22;13739;51.172;4.466;2022-10-16T08:27:49;15.00;99.90
25939;DHT22;13739;51.172;4.466;2022-10-16T08:30:17;15.10;99.90
25939;DHT22;13739;51.172;4.466;2022-10-16T08:32:43;15.00;99.90
25939;DHT22;13739;51.172;4.466;2022-10-16T08:35:09;15.10;99.90
25939;DHT22;13739;51.172;4.466;2022-10-16T08:37:36;15.10;99.90
25939;DHT22;13739;51.172;4.466;2022-10-16T08:40:02;15.20;99.90
25939;DHT22;13739;51.172;4.466;2022-10-16T08:45:37;15.30;99.90
25939;DHT22;13739;51.172;4.466;2022-10-16T08:48:43;15.40;99.90
25939;DHT22;13739;51.172;4.466;2022-10-16T08:51:19;15.40;99.90
25939;DHT22;13739;51.172;4.466;2022-10-16T08:53:57;15.40;99.90
25939;DHT22;13739;51.172;4.466;2022-10-16T08:56:24;15.50;99.90
25939;DHT22;13739;51.172;4.466;2022-10-16T08:58:51;15.40;99.90
25939;DHT22;13739;51.172;4.466;2022-10-16T09:01:20;15.50;99.90
25939;DHT22;13739;51.172;4.466;2022-10-16T09:22:32;15.90;99.90
25939;DHT22;13739;51.172;4.466;2022-10-16T09:25:01;15.90;99.90
25939;DHT22;13739;51.172;4.466;2022-10-16T09:27:35;16.10;99.90
25939;DHT22;13739;51.172;4.466;2022-10-16T09:30:01;16.00;99.90
25939;DHT22;13739;51.172;4.466;2022-10-16T09:32:32;16.00;99.90
25939;DHT22;13739;51.172;4.466;2022-10-16T09:34:58;16.00;99.90
25939;DHT22;13739;51.172;4.466;2022-10-16T09:37:25;16.00;99.90
25939;DHT22;13739;51.172;4.466;2022-10-16T09:39:54;16.10;99.90
25939;DHT22;13739;51.172;4.466;2022-10-16T09:44:51;16.20;99.90
25939;DHT22;13739;51.172;4.466;2022-10-16T09:47:21;16.20;99.90
25939;DHT22;13739;51.172;4.466;2022-10-16T09:50:01;16.20;99.90
25939;DHT22;13739;51.172;4.466;2022-10-16T09:52:30;16.30;99.90
25939;DHT22;13739;51.172;4.466;2022-10-16T09:55:12;16.30;99.90
25939;DHT22;13739;51.172;4.466;2022-10-16T09:57:54;16.40;99.90
25939;DHT22;13739;51.172;4.466;2022-10-16T10:00:22;16.40;99.90
25939;DHT22;13739;51.172;4.466;2022-10-16T10:02:49;16.40;99.90
25939;DHT22;13739;51.172;4.466;2022-10-16T10:05:24;16.40;99.90
25939;DHT22;13739;51.172;4.466;2022-10-16T10:07:58;16.50;99.90
25939;DHT22;13739;51.172;4.466;2022-10-16T10:10:27;16.60;99.90
25939;DHT22;13739;51.172;4.466;2022-10-16T10:12:54;16.70;99.90
25939;DHT22;13739;51.172;4.466;2022-10-16T10:15:20;16.80;99.90
25939;DHT22;13739;51.172;4.466;2022-10-16T10:17:54;16.90;99.90
25939;DHT22;13739;51.172;4.466;2022-10-16T10:20:39;16.90;99.90
25939;DHT22;13739;51.172;4.466;2022-10-16T10:23:23;17.00;99.90
25939;DHT22;13739;51.172;4.466;2022-10-16T10:28:25;17.10;99.90
25939;DHT22;13739;51.172;4.466;2022-10-16T10:33:47;17.20;99.90
25939;DHT22;13739;51.172;4.466;2022-10-16T10:36:27;17.40;99.90
25939;DHT22;13739;51.172;4.466;2022-10-16T10:44:50;17.80;99.90
25939;DHT22;13739;51.172;4.466;2022-10-16T10:56:00;17.90;99.90
25939;DHT22;13739;51.172;4.466;2022-10-16T11:09:11;17.80;99.90
25939;DHT22;13739;51.172;4.466;2022-10-16T11:11:38;17.80;99.90
25939;DHT22;13739;51.172;4.466;2022-10-16T11:16:43;18.00;99.90
25939;DHT22;13739;51.172;4.466;2022-10-16T11:25:13;18.20;99.90
25939;DHT22;13739;51.172;4.466;2022-10-16T11:27:49;18.30;99.90
25939;DHT22;13739;51.172;4.466;2022-10-16T11:35:44;18.60;99.90
25939;DHT22;13739;51.172;4.466;2022-10-16T11:41:02;18.60;99.90
25939;DHT22;13739;51.172;4.466;2022-10-16T11:43:37;18.60;99.90
25939;DHT22;13739;51.172;4.466;2022-10-16T11:46:15;18.60;99.90
25939;DHT22;13739;51.172;4.466;2022-10-16T11:48:59;18.70;99.90
25939;DHT22;13739;51.172;4.466;2022-10-16T11:51:37;18.80;99.90
25939;DHT22;13739;51.172;4.466;2022-10-16T11:57:36;19.20;99.90
25939;DHT22;13739;51.172;4.466;2022-10-16T12:00:14;18.90;99.90
25939;DHT22;13739;51.172;4.466;2022-10-16T12:08:16;18.60;99.90
25939;DHT22;13739;51.172;4.466;2022-10-16T12:10:44;18.70;99.90
25939;DHT22;13739;51.172;4.466;2022-10-16T12:13:37;18.90;99.90
25939;DHT22;13739;51.172;4.466;2022-10-16T12:16:20;18.90;99.90
25939;DHT22;13739;51.172;4.466;2022-10-16T12:18:47;18.90;99.90
25939;DHT22;13739;51.172;4.466;2022-10-16T12:21:14;18.70;99.90
25939;DHT22;13739;51.172;4.466;2022-10-16T12:23:53;18.60;99.90
25939;DHT22;13739;51.172;4.466;2022-10-16T12:26:31;18.60;99.90
25939;DHT22;13739;51.172;4.466;2022-10-16T12:29:35;18.70;99.90
25939;DHT22;13739;51.172;4.466;2022-10-16T12:32:00;18.90;99.90
25939;DHT22;13739;51.172;4.466;2022-10-16T12:34:27;18.80;99.90
25939;DHT22;13739;51.172;4.466;2022-10-16T12:36:54;18.80;99.90
25939;DHT22;13739;51.172;4.466;2022-10-16T12:39:23;18.80;99.90
25939;DHT22;13739;51.172;4.466;2022-10-16T12:42:01;18.70;99.90
25939;DHT22;13739;51.172;4.466;2022-10-16T12:44:32;18.50;99.90
25939;DHT22;13739;51.172;4.466;2022-10-16T12:46:58;18.30;99.90
25939;DHT22;13739;51.172;4.466;2022-10-16T12:49:35;18.30;99.90
25939;DHT22;13739;51.172;4.466;2022-10-16T12:52:02;18.40;99.90
25939;DHT22;13739;51.172;4.466;2022-10-16T12:54:31;18.50;99.90
25939;DHT22;13739;51.172;4.466;2022-10-16T13:03:09;18.60;99.90
25939;DHT22;13739;51.172;4.466;2022-10-16T13:25:21;19.40;99.90
25939;DHT22;13739;51.172;4.466;2022-10-16T13:27:54;19.50;99.90
25939;DHT22;13739;51.172;4.466;2022-10-16T13:30:28;19.70;99.90
25939;DHT22;13739;51.172;4.466;2022-10-16T13:33:07;19.70;99.90
25939;DHT22;13739;51.172;4.466;2022-10-16T13:35:37;19.80;99.90
25939;DHT22;13739;51.172;4.466;2022-10-16T13:38:15;19.90;99.90
25939;DHT22;13739;51.172;4.466;2022-10-16T13:48:32;19.80;99.90
25939;DHT22;13739;51.172;4.466;2022-10-16T13:53:38;19.90;99.90
25939;DHT22;13739;51.172;4.466;2022-10-16T13:56:07;20.10;99.90
25939;DHT22;13739;51.172;4.466;2022-10-16T13:58:35;20.10;99.90
25939;DHT22;13739;51.172;4.466;2022-10-16T14:01:06;20.00;99.90
25939;DHT22;13739;51.172;4.466;2022-10-16T14:03:41;20.10;99.90
25939;DHT22;13739;51.172;4.466;2022-10-16T14:06:12;20.20;99.90
25939;DHT22;13739;51.172;4.466;2022-10-16T14:08:45;20.20;99.90
25939;DHT22;13739;51.172;4.466;2022-10-16T14:11:23;20.30;99.90
25939;DHT22;13739;51.172;4.466;2022-10-16T14:13:50;20.20;99.90
25939;DHT22;13739;51.172;4.466;2022-10-16T14:16:18;19.80;99.90
25939;DHT22;13739;51.172;4.466;2022-10-16T14:19:04;20.00;99.90
25939;DHT22;13739;51.172;4.466;2022-10-16T14:21:36;20.00;99.90
25939;DHT22;13739;51.172;4.466;2022-10-16T14:26:53;19.50;99.90
25939;DHT22;13739;51.172;4.466;2022-10-16T14:29:24;19.60;99.90
25939;DHT22;13739;51.172;4.466;2022-10-16T14:32:04;19.90;99.90
25939;DHT22;13739;51.172;4.466;2022-10-16T14:34:35;19.70;99.90
25939;DHT22;13739;51.172;4.466;2022-10-16T14:39:41;19.90;99.90
25939;DHT22;13739;51.172;4.466;2022-10-16T14:42:16;19.90;99.90
25939;DHT22;13739;51.172;4.466;2022-10-16T14:44:43;20.00;99.90
25939;DHT22;13739;51.172;4.466;2022-10-16T14:47:13;20.10;99.90
25939;DHT22;13739;51.172;4.466;2022-10-16T14:49:41;20.00;99.90
25939;DHT22;13739;51.172;4.466;2022-10-16T14:52:11;19.60;99.90
25939;DHT22;13739;51.172;4.466;2022-10-16T14:54:38;19.50;99.90
25939;DHT22;13739;51.172;4.466;2022-10-16T14:57:03;19.30;99.90
25939;DHT22;13739;51.172;4.466;2022-10-16T14:59:40;19.40;99.90
25939;DHT22;13739;51.172;4.466;2022-10-16T15:04:46;19.10;99.90
25939;DHT22;13739;51.172;4.466;2022-10-16T15:07:12;19.20;99.90
25939;DHT22;13739;51.172;4.466;2022-10-16T15:09:37;19.20;99.90
25939;DHT22;13739;51.172;4.466;2022-10-16T15:12:03;19.10;99.90
25939;DHT22;13739;51.172;4.466;2022-10-16T15:14:29;19.10;99.90
25939;DHT22;13739;51.172;4.466;2022-10-16T15:16:54;19.10;99.90
25939;DHT22;13739;51.172;4.466;2022-10-16T15:19:20;19.30;99.90
25939;DHT22;13739;51.172;4.466;2022-10-16T15:21:45;19.30;99.90
25939;DHT22;13739;51.172;4.466;2022-10-16T15:24:12;19.30;99.90
25939;DHT22;13739;51.172;4.466;2022-10-16T15:26:38;19.10;99.90
25939;DHT22;13739;51.172;4.466;2022-10-16T15:29:04;19.00;99.90
25939;DHT22;13739;51.172;4.466;2022-10-16T15:31:30;18.80;99.90
25939;DHT22;13739;51.172;4.466;2022-10-16T15:33:56;18.80;99.90
25939;DHT22;13739;51.172;4.466;2022-10-16T15:36:32;18.80;99.90
25939;DHT22;13739;51.172;4.466;2022-10-16T15:38:59;18.80;99.90
25939;DHT22;13739;51.172;4.466;2022-10-16T15:41:25;18.90;99.90
25939;DHT22;13739;51.172;4.466;2022-10-16T15:43:52;18.80;99.90
25939;DHT22;13739;51.172;4.466;2022-10-16T15:46:20;18.80;99.90
25939;DHT22;13739;51.172;4.466;2022-10-16T15:48:47;18.70;99.90
25939;DHT22;13739;51.172;4.466;2022-10-16T15:51:13;18.70;99.90
25939;DHT22;13739;51.172;4.466;2022-10-16T15:53:39;18.70;99.90
25939;DHT22;13739;51.172;4.466;2022-10-16T15:56:06;18.70;99.90
25939;DHT22;13739;51.172;4.466;2022-10-16T15:58:32;18.70;99.90
25939;DHT22;13739;51.172;4.466;2022-10-16T16:00:59;18.90;99.90
25939;DHT22;13739;51.172;4.466;2022-10-16T16:03:29;18.80;99.90
25939;DHT22;13739;51.172;4.466;2022-10-16T16:05:55;18.60;99.90
25939;DHT22;13739;51.172;4.466;2022-10-16T16:08:21;18.60;99.90
25939;DHT22;13739;51.172;4.466;2022-10-16T16:11:09;18.50;99.90
25939;DHT22;13739;51.172;4.466;2022-10-16T16:13:35;18.10;99.90
25939;DHT22;13739;51.172;4.466;2022-10-16T16:16:12;18.00;99.90
25939;DHT22;13739;51.172;4.466;2022-10-16T16:18:39;18.20;99.90
25939;DHT22;13739;51.172;4.466;2022-10-16T16:21:05;18.20;99.90
25939;DHT22;13739;51.172;4.466;2022-10-16T16:23:31;18.40;99.90
25939;DHT22;13739;51.172;4.466;2022-10-16T16:26:14;18.30;99.90
25939;DHT22;13739;51.172;4.466;2022-10-16T16:28:41;18.20;99.90
25939;DHT22;13739;51.172;4.466;2022-10-16T16:31:07;18.20;99.90
25939;DHT22;13739;51.172;4.466;2022-10-16T16:33:33;18.20;99.90
25939;DHT22;13739;51.172;4.466;2022-10-16T16:36:00;18.10;99.90
25939;DHT22;13739;51.172;4.466;2022-10-16T16:38:27;18.00;99.90
25939;DHT22;13739;51.172;4.466;2022-10-16T16:40:53;18.00;99.90
25939;DHT22;13739;51.172;4.466;2022-10-16T16:43:24;17.90;99.90
25939;DHT22;13739;51.172;4.466;2022-10-16T16:45:49;17.90;99.90
25939;DHT22;13739;51.172;4.466;2022-10-16T16:48:15;17.80;99.90
25939;DHT22;13739;51.172;4.466;2022-10-16T16:50:41;17.70;99.90
25939;DHT22;13739;51.172;4.466;2022-10-16T16:53:06;17.70;99.90
25939;DHT22;13739;51.172;4.466;2022-10-16T16:55:33;17.70;99.90
25939;DHT22;13739;51.172;4.466;2022-10-16T16:57:58;17.90;99.90
25939;DHT22;13739;51.172;4.466;2022-10-16T17:00:24;18.00;99.90
25939;DHT22;13739;51.172;4.466;2022-10-16T17:02:50;18.00;99.90
25939;DHT22;13739;51.172;4.466;2022-10-16T17:05:16;17.80;99.90
25939;DHT22;13739;51.172;4.466;2022-10-16T17:07:42;17.60;99.90
25939;DHT22;13739;51.172;4.466;2022-10-16T17:10:08;17.50;99.90
25939;DHT22;13739;51.172;4.466;2022-10-16T17:12:34;17.60;99.90
25939;DHT22;13739;51.172;4.466;2022-10-16T17:15:00;17.60;99.90
25939;DHT22;13739;51.172;4.466;2022-10-16T17:17:26;17.80;99.90
25939;DHT22;13739;51.172;4.466;2022-10-16T17:19:52;17.60;99.90
25939;DHT22;13739;51.172;4.466;2022-10-16T17:22:18;17.50;99.90
25939;DHT22;13739;51.172;4.466;2022-10-16T17:24:45;17.40;99.90
25939;DHT22;13739;51.172;4.466;2022-10-16T17:27:15;17.40;99.90
25939;DHT22;13739;51.172;4.466;2022-10-16T17:29:40;17.40;99.90
25939;DHT22;13739;51.172;4.466;2022-10-16T17:32:06;17.40;99.90
25939;DHT22;13739;51.172;4.466;2022-10-16T17:34:32;17.30;99.90
25939;DHT22;13739;51.172;4.466;2022-10-16T17:36:57;17.30;99.90
25939;DHT22;13739;51.172;4.466;2022-10-16T17:39:23;17.30;99.90
25939;DHT22;13739;51.172;4.466;2022-10-16T17:41:49;17.30;99.90
25939;DHT22;13739;51.172;4.466;2022-10-16T17:44:15;17.30;99.90
25939;DHT22;13739;51.172;4.466;2022-10-16T17:46:51;17.20;99.90
25939;DHT22;13739;51.172;4.466;2022-10-16T17:49:18;17.20;99.90
25939;DHT22;13739;51.172;4.466;2022-10-16T17:51:45;17.10;99.90
25939;DHT22;13739;51.172;4.466;2022-10-16T17:54:11;17.00;99.90
25939;DHT22;13739;51.172;4.466;2022-10-16T17:56:38;16.90;99.90
25939;DHT22;13739;51.172;4.466;2022-10-16T17:59:04;16.90;99.90